Time;durP1;ratioP1;P1;durP2;ratioP2;P2;SDS_P1;SDS_P2;PMS_P1;PMS_P2;Temp;Humidity;BMP_temperature;BMP_pressure;BME280_temperature;BME280_humidity;BME280_pressure;Samples;Min_cycle;Max_cycle;Signal;HPM_P1;HPM_P2
2021/10/09 00:00:52;;;;;;;21.23;13.55;;;10.50;77.80;;;;;;5056490;28;20437;-66
2021/10/09 00:03:18;;;;;;;19.30;13.02;;;10.50;77.90;;;;;;5059305;28;20029;-67
2021/10/09 00:05:43;;;;;;;20.00;13.82;;;10.40;77.90;;;;;;5058764;28;20969;-66
2021/10/09 00:08:14;;;;;;;21.13;13.98;;;10.40;78.00;;;;;;5058236;28;20113;-67
2021/10/09 00:10:41;;;;;;;22.77;14.73;;;10.40;78.10;;;;;;5056364;28;20045;-67
2021/10/09 00:13:08;;;;;;;19.88;13.80;;;10.30;78.10;;;;;;5056866;28;20032;-67
2021/10/09 00:15:34;;;;;;;21.98;14.68;;;10.40;78.20;;;;;;5056719;28;20033;-67
2021/10/09 00:18:02;;;;;;;19.30;13.48;;;10.30;78.40;;;;;;5058547;28;20060;-67
2021/10/09 00:20:29;;;;;;;22.00;14.90;;;10.30;78.50;;;;;;5059256;28;20032;-66
2021/10/09 00:22:55;;;;;;;21.58;14.43;;;10.30;78.60;;;;;;5057131;28;20495;-66
2021/10/09 00:25:21;;;;;;;23.88;14.77;;;10.30;78.60;;;;;;5058204;28;20047;-66
2021/10/09 00:27:46;;;;;;;20.70;13.35;;;10.20;78.60;;;;;;5057592;28;20025;-67
2021/10/09 00:30:12;;;;;;;22.35;14.70;;;10.20;78.70;;;;;;5056469;28;20029;-67
2021/10/09 00:32:38;;;;;;;21.10;14.55;;;10.20;78.90;;;;;;5054259;28;20029;-67
2021/10/09 00:35:04;;;;;;;23.40;14.80;;;10.20;78.90;;;;;;5055781;28;20507;-66
2021/10/09 00:37:30;;;;;;;21.02;13.98;;;10.20;78.90;;;;;;5057398;28;20662;-67
2021/10/09 00:39:55;;;;;;;26.98;15.60;;;10.20;79.10;;;;;;5055354;28;20083;-67
2021/10/09 00:42:22;;;;;;;20.48;14.13;;;10.20;79.10;;;;;;5054141;28;20717;-66
2021/10/09 00:44:47;;;;;;;21.13;14.63;;;10.10;79.10;;;;;;5037364;28;20491;-67
2021/10/09 00:47:15;;;;;;;26.63;14.98;;;10.10;79.20;;;;;;5045062;28;20044;-66
2021/10/09 00:49:40;;;;;;;22.17;13.77;;;10.10;79.30;;;;;;5056170;28;20032;-67
2021/10/09 00:52:09;;;;;;;24.20;14.18;;;10.10;79.40;;;;;;5056300;28;20036;-67
2021/10/09 00:54:38;;;;;;;24.17;14.73;;;10.10;79.60;;;;;;5046661;28;20071;-67
2021/10/09 00:57:05;;;;;;;24.25;15.13;;;10.10;79.60;;;;;;5053770;28;20028;-67
2021/10/09 00:59:31;;;;;;;22.98;14.93;;;10.10;79.60;;;;;;5047820;28;20052;-67
2021/10/09 01:02:00;;;;;;;24.17;15.27;;;10.10;79.60;;;;;;5044977;28;20056;-65
2021/10/09 01:04:27;;;;;;;23.75;15.05;;;10.10;79.50;;;;;;5046244;28;20060;-66
2021/10/09 01:06:52;;;;;;;20.90;14.48;;;10.00;79.40;;;;;;5048586;28;20080;-66
2021/10/09 01:09:18;;;;;;;24.45;15.68;;;10.00;79.30;;;;;;5049411;28;20052;-66
2021/10/09 01:11:44;;;;;;;21.52;14.93;;;10.00;79.30;;;;;;5044613;28;20489;-66
2021/10/09 01:14:09;;;;;;;28.98;15.32;;;10.00;79.30;;;;;;5050869;28;20170;-67
2021/10/09 01:16:35;;;;;;;24.63;16.80;;;10.00;79.30;;;;;;5051122;28;20071;-67
2021/10/09 01:19:01;;;;;;;24.55;14.73;;;10.00;79.30;;;;;;5049933;28;20033;-66
2021/10/09 01:21:36;;;;;;;24.58;15.82;;;9.90;79.30;;;;;;5055765;28;20033;-67
2021/10/09 01:24:02;;;;;;;23.52;15.40;;;9.90;79.30;;;;;;5049847;28;20025;-66
2021/10/09 01:26:27;;;;;;;22.27;15.35;;;9.90;79.80;;;;;;5047879;28;20044;-67
2021/10/09 01:28:53;;;;;;;25.48;16.02;;;9.80;79.30;;;;;;5052852;28;20059;-67
2021/10/09 01:31:19;;;;;;;21.23;14.80;;;9.80;79.30;;;;;;5049084;28;20041;-67
2021/10/09 01:33:45;;;;;;;25.55;16.20;;;9.80;79.30;;;;;;5051366;28;20035;-66
2021/10/09 01:36:11;;;;;;;24.85;15.05;;;9.80;79.30;;;;;;5049801;28;20094;-66
2021/10/09 01:38:38;;;;;;;23.60;15.40;;;9.80;79.40;;;;;;5050652;28;20508;-67
2021/10/09 01:41:05;;;;;;;23.83;15.80;;;9.80;79.40;;;;;;5050685;28;20607;-67
2021/10/09 01:43:31;;;;;;;24.90;15.75;;;9.80;79.40;;;;;;5052445;28;20047;-67
2021/10/09 01:45:56;;;;;;;23.92;15.35;;;9.70;79.40;;;;;;5046012;28;20037;-65
2021/10/09 01:48:34;;;;;;;21.45;14.90;;;9.70;79.40;;;;;;5049670;28;20074;-66
2021/10/09 01:51:00;;;;;;;24.73;15.88;;;9.70;79.60;;;;;;5051033;28;20037;-66
2021/10/09 01:53:26;;;;;;;25.48;15.90;;;9.70;79.30;;;;;;5049902;28;20050;-66
2021/10/09 01:55:52;;;;;;;23.65;14.73;;;9.70;79.40;;;;;;5050294;28;20455;-66
2021/10/09 01:58:17;;;;;;;26.80;16.23;;;9.60;79.30;;;;;;5052186;28;20131;-66
2021/10/09 02:00:43;;;;;;;24.35;15.73;;;9.60;79.50;;;;;;5050597;28;20764;-66
2021/10/09 02:03:09;;;;;;;23.17;16.40;;;9.60;79.60;;;;;;5044994;28;20172;-66
2021/10/09 02:05:35;;;;;;;24.10;15.15;;;9.60;79.70;;;;;;5053922;28;20040;-67
2021/10/09 02:08:03;;;;;;;22.85;15.15;;;9.50;79.70;;;;;;5048038;28;20059;-66
2021/10/09 02:10:29;;;;;;;26.25;16.60;;;9.50;80.60;;;;;;5055432;28;20670;-66
2021/10/09 02:12:56;;;;;;;24.75;15.23;;;9.50;79.90;;;;;;5055505;28;20024;-66
2021/10/09 02:15:31;;;;;;;25.25;15.77;;;9.50;79.90;;;;;;5053843;28;20044;-66
2021/10/09 02:26:02;;;;;;;23.40;16.15;;;9.30;80.20;;;;;;5053975;28;20450;-67
2021/10/09 02:28:28;;;;;;;26.58;17.27;;;9.30;80.30;;;;;;5052935;28;20033;-68
2021/10/09 02:30:54;;;;;;;24.30;15.88;;;9.20;80.40;;;;;;5052815;28;20036;-67
2021/10/09 02:33:20;;;;;;;24.33;16.33;;;9.30;80.60;;;;;;5053422;28;20154;-67
2021/10/09 02:35:46;;;;;;;25.60;16.33;;;9.20;80.70;;;;;;5057262;28;20559;-66
2021/10/09 02:38:12;;;;;;;27.50;16.52;;;9.20;81.70;;;;;;5056427;28;20042;-67
2021/10/09 02:40:40;;;;;;;24.92;15.35;;;9.20;80.90;;;;;;5055879;28;20029;-67
2021/10/09 02:43:06;;;;;;;23.35;15.63;;;9.20;81.00;;;;;;5059518;28;20033;-65
2021/10/09 02:45:32;;;;;;;25.27;15.02;;;9.20;81.10;;;;;;5061023;28;20033;-67
2021/10/09 02:47:59;;;;;;;26.80;16.10;;;9.20;81.10;;;;;;5055350;28;20091;-66
2021/10/09 02:50:25;;;;;;;22.98;15.55;;;9.20;81.00;;;;;;5058153;28;20041;-67
2021/10/09 02:52:51;;;;;;;24.48;15.63;;;9.20;81.00;;;;;;5056575;28;20028;-66
2021/10/09 02:55:20;;;;;;;21.45;15.32;;;9.30;80.90;;;;;;5057214;28;20032;-66
2021/10/09 02:57:49;;;;;;;29.67;16.60;;;9.20;80.80;;;;;;5056573;28;20064;-66
2021/10/09 03:00:17;;;;;;;24.08;14.38;;;9.30;80.80;;;;;;5056156;28;20040;-66
2021/10/09 03:02:42;;;;;;;22.60;15.18;;;9.20;80.60;;;;;;5057851;28;20032;-67
2021/10/09 03:05:10;;;;;;;23.70;15.60;;;9.30;80.60;;;;;;5056340;28;20474;-65
2021/10/09 03:07:36;;;;;;;22.20;15.57;;;9.30;80.80;;;;;;5058395;28;20119;-67
2021/10/09 03:10:04;;;;;;;26.50;15.90;;;9.30;80.80;;;;;;5051445;28;20040;-67
2021/10/09 03:12:30;;;;;;;25.50;15.00;;;9.20;80.80;;;;;;5051125;28;20041;-67
2021/10/09 03:14:55;;;;;;;24.55;15.82;;;9.20;80.80;;;;;;5048242;28;20040;-65
2021/10/09 03:17:21;;;;;;;21.80;14.77;;;9.20;80.90;;;;;;5052998;28;20040;-67
2021/10/09 03:19:47;;;;;;;21.48;15.20;;;9.30;81.00;;;;;;5050616;28;20048;-67
2021/10/09 03:22:13;;;;;;;27.70;16.17;;;9.30;81.00;;;;;;5046526;28;20559;-66
2021/10/09 03:24:38;;;;;;;24.38;15.85;;;9.30;81.10;;;;;;5050230;28;20599;-66
2021/10/09 03:27:04;;;;;;;24.42;15.27;;;9.30;81.00;;;;;;5055272;28;20067;-66
2021/10/09 03:29:30;;;;;;;23.10;16.20;;;9.30;81.00;;;;;;5050571;28;20048;-66
2021/10/09 03:31:55;;;;;;;25.65;16.63;;;9.30;81.00;;;;;;5051529;28;20047;-66
2021/10/09 03:34:21;;;;;;;24.48;15.07;;;9.30;81.20;;;;;;5054048;28;20037;-67
2021/10/09 03:36:46;;;;;;;24.15;15.95;;;9.30;81.20;;;;;;5050654;28;20041;-67
2021/10/09 03:39:16;;;;;;;24.08;16.20;;;9.30;81.20;;;;;;5052464;28;20504;-66
2021/10/09 03:41:46;;;;;;;24.27;15.63;;;9.30;81.30;;;;;;5055443;28;20124;-66
2021/10/09 03:44:12;;;;;;;25.75;16.20;;;9.30;81.40;;;;;;5053363;28;20033;-66
2021/10/09 03:46:44;;;;;;;24.40;15.35;;;9.30;81.40;;;;;;5053055;28;20447;-67
2021/10/09 03:49:24;;;;;;;23.25;15.50;;;9.30;81.50;;;;;;5052394;28;20068;-66
2021/10/09 03:54:35;;;;;;;21.63;14.80;;;9.40;81.90;;;;;;5052175;28;20072;-67
2021/10/09 03:57:01;;;;;;;21.63;14.77;;;9.30;81.40;;;;;;5051668;28;20194;-66
2021/10/09 03:59:26;;;;;;;24.90;14.45;;;9.40;81.50;;;;;;5052048;28;20036;-67
2021/10/09 04:01:52;;;;;;;23.50;16.13;;;9.40;81.50;;;;;;5050411;28;20036;-65
2021/10/09 04:04:18;;;;;;;24.55;15.10;;;9.40;81.60;;;;;;5053707;28;20029;-66
2021/10/09 04:06:43;;;;;;;25.60;15.85;;;9.40;81.50;;;;;;5056001;28;20106;-67
2021/10/09 04:09:09;;;;;;;26.65;15.10;;;9.40;81.40;;;;;;5037037;28;20127;-67
2021/10/09 04:11:34;;;;;;;21.60;15.20;;;9.50;81.50;;;;;;5052873;28;20440;-67
2021/10/09 04:14:00;;;;;;;22.85;14.80;;;9.40;81.50;;;;;;5052068;28;20120;-67
2021/10/09 04:16:25;;;;;;;19.95;14.65;;;9.50;81.60;;;;;;5046928;28;20040;-66
2021/10/09 04:18:51;;;;;;;22.40;15.05;;;9.40;81.50;;;;;;5051284;28;20041;-66
2021/10/09 04:21:17;;;;;;;23.85;15.02;;;9.50;81.60;;;;;;5049561;28;20044;-67
2021/10/09 04:23:42;;;;;;;20.23;14.32;;;9.50;81.70;;;;;;5052059;28;20584;-67
2021/10/09 04:26:08;;;;;;;23.35;15.60;;;9.50;81.60;;;;;;5050292;28;20033;-66
2021/10/09 04:28:34;;;;;;;20.95;14.80;;;9.50;81.70;;;;;;5050631;28;20068;-67
2021/10/09 04:31:01;;;;;;;26.40;15.05;;;9.50;81.70;;;;;;5050719;28;20680;-67
2021/10/09 04:33:28;;;;;;;22.15;14.98;;;9.50;81.80;;;;;;5051082;28;20037;-66
2021/10/09 04:35:53;;;;;;;22.17;14.30;;;9.50;81.90;;;;;;5053310;28;20028;-67
2021/10/09 04:38:19;;;;;;;25.17;15.23;;;9.50;82.00;;;;;;5048532;28;20056;-66
2021/10/09 04:40:45;;;;;;;25.20;14.40;;;9.50;81.90;;;;;;5053524;28;20043;-67
2021/10/09 04:43:11;;;;;;;21.52;14.90;;;9.50;81.90;;;;;;5051550;28;20037;-67
2021/10/09 04:45:36;;;;;;;21.58;15.02;;;9.60;82.10;;;;;;5053159;28;20525;-66
2021/10/09 04:48:04;;;;;;;23.20;14.82;;;9.60;82.00;;;;;;5047735;28;20033;-67
2021/10/09 04:50:30;;;;;;;22.40;15.32;;;9.60;82.00;;;;;;5049720;28;20040;-65
2021/10/09 04:52:55;;;;;;;22.90;15.07;;;9.60;82.00;;;;;;5051552;28;20114;-67
2021/10/09 04:55:21;;;;;;;25.42;14.88;;;9.60;82.10;;;;;;5050745;28;20045;-66
2021/10/09 04:57:47;;;;;;;23.67;14.48;;;9.60;82.20;;;;;;5050124;28;20161;-67
2021/10/09 05:00:13;;;;;;;21.60;14.25;;;9.60;82.10;;;;;;5051735;28;20025;-67
2021/10/09 05:02:38;;;;;;;23.02;14.48;;;9.60;82.10;;;;;;5044880;28;20452;-67
2021/10/09 05:05:04;;;;;;;22.50;15.45;;;9.70;82.20;;;;;;5054311;28;20500;-67
2021/10/09 05:07:30;;;;;;;21.02;14.02;;;9.70;81.70;;;;;;5052522;28;20086;-66
2021/10/09 05:09:56;;;;;;;19.70;14.50;;;9.70;82.00;;;;;;5051660;28;20535;-67
2021/10/09 05:12:21;;;;;;;21.75;13.23;;;9.70;82.20;;;;;;5049803;28;20045;-67
2021/10/09 05:14:47;;;;;;;22.77;14.07;;;9.70;82.20;;;;;;5053150;28;20044;-67
2021/10/09 05:17:13;;;;;;;24.65;13.48;;;9.70;82.20;;;;;;5046140;28;20097;-67
2021/10/09 05:19:38;;;;;;;24.88;14.82;;;9.70;82.10;;;;;;5050242;28;20068;-67
2021/10/09 05:22:04;;;;;;;21.67;14.05;;;9.70;82.10;;;;;;5049203;28;20079;-67
2021/10/09 05:24:30;;;;;;;21.17;13.98;;;9.70;82.00;;;;;;5051882;28;20056;-66
2021/10/09 05:26:56;;;;;;;19.05;14.35;;;9.70;82.00;;;;;;5048804;28;20028;-66
2021/10/09 05:29:23;;;;;;;22.85;13.88;;;9.70;81.90;;;;;;5050951;28;20120;-67
2021/10/09 05:31:51;;;;;;;21.20;14.50;;;9.70;81.90;;;;;;5054582;28;20703;-67
2021/10/09 05:34:17;;;;;;;21.83;14.02;;;9.70;81.90;;;;;;5047191;28;20024;-66
2021/10/09 05:36:43;;;;;;;23.75;14.18;;;9.70;81.90;;;;;;5045345;28;20041;-66
2021/10/09 05:39:08;;;;;;;20.83;13.85;;;9.70;82.00;;;;;;5046139;28;20036;-67
2021/10/09 05:41:34;;;;;;;21.20;13.75;;;9.70;81.90;;;;;;5044961;28;20610;-66
2021/10/09 05:44:00;;;;;;;25.17;14.88;;;9.70;82.00;;;;;;5046087;28;20497;-66
2021/10/09 05:46:25;;;;;;;24.42;13.95;;;9.70;82.00;;;;;;5051381;28;20531;-67
2021/10/09 05:48:52;;;;;;;21.13;14.52;;;9.70;81.90;;;;;;5044203;28;20033;-67
2021/10/09 05:51:24;;;;;;;21.73;13.68;;;9.70;82.00;;;;;;5051468;28;20025;-67
2021/10/09 07:01:07;;;;;;;26.47;17.60;;;10.10;82.40;;;;;;5024299;28;20052;-66
2021/10/09 07:03:32;;;;;;;26.35;17.85;;;10.20;82.40;;;;;;5026216;28;20120;-66
2021/10/09 07:05:58;;;;;;;26.75;16.83;;;10.20;82.30;;;;;;5028741;28;20120;-67
2021/10/09 07:08:24;;;;;;;27.80;17.25;;;10.20;82.30;;;;;;5028229;28;20548;-67
2021/10/09 07:10:50;;;;;;;26.95;17.40;;;10.20;82.20;;;;;;5028176;28;20037;-66
2021/10/09 07:13:16;;;;;;;26.73;17.40;;;10.30;82.40;;;;;;5026361;28;20071;-67
2021/10/09 07:15:41;;;;;;;25.13;17.25;;;10.30;82.30;;;;;;5029050;28;20041;-66
2021/10/09 07:18:13;;;;;;;28.45;17.33;;;10.30;82.20;;;;;;5043975;28;20061;-67
2021/10/09 07:20:40;;;;;;;29.48;17.13;;;10.30;82.20;;;;;;5026814;28;20091;-67
2021/10/09 07:23:08;;;;;;;23.67;16.67;;;10.30;82.20;;;;;;5029600;28;20044;-67
2021/10/09 07:25:35;;;;;;;31.67;17.60;;;10.40;82.00;;;;;;5028301;28;20622;-67
2021/10/09 07:28:01;;;;;;;26.85;18.17;;;10.40;82.00;;;;;;5027910;28;20519;-67
2021/10/09 07:30:27;;;;;;;26.17;17.58;;;10.40;82.00;;;;;;5028308;28;20029;-67
2021/10/09 07:32:53;;;;;;;25.52;17.48;;;10.50;82.20;;;;;;5032562;28;20112;-67
2021/10/09 07:35:18;;;;;;;25.38;17.25;;;10.50;82.10;;;;;;5016722;28;20108;-67
2021/10/09 07:37:44;;;;;;;27.40;17.83;;;10.60;82.10;;;;;;5032778;28;20030;-68
2021/10/09 07:40:11;;;;;;;27.45;17.02;;;10.60;82.00;;;;;;5020624;28;20409;-67
2021/10/09 07:42:37;;;;;;;25.60;17.75;;;10.60;81.90;;;;;;5031918;28;20040;-66
2021/10/09 07:45:04;;;;;;;26.23;17.25;;;10.70;81.80;;;;;;5028113;28;20037;-67
2021/10/09 07:47:29;;;;;;;27.42;17.70;;;10.80;81.60;;;;;;5033433;28;20540;-67
2021/10/09 07:49:55;;;;;;;27.65;17.20;;;10.80;81.40;;;;;;5039912;28;20042;-66
2021/10/09 07:52:21;;;;;;;30.80;18.38;;;10.80;81.20;;;;;;5026527;28;20136;-66
2021/10/09 07:54:46;;;;;;;25.30;17.08;;;10.90;81.00;;;;;;5028095;28;20515;-65
2021/10/09 07:57:12;;;;;;;27.90;17.15;;;10.90;80.80;;;;;;5028459;28;20116;-66
2021/10/09 07:59:37;;;;;;;26.70;17.17;;;10.90;81.00;;;;;;5032024;28;20033;-66
2021/10/09 08:02:05;;;;;;;27.40;17.40;;;10.90;81.00;;;;;;5031068;28;20056;-68
2021/10/09 08:04:31;;;;;;;28.73;16.48;;;11.00;81.00;;;;;;5029724;28;20038;-68
2021/10/09 08:06:57;;;;;;;27.45;18.17;;;11.00;81.00;;;;;;5032260;28;20033;-67
2021/10/09 08:09:25;;;;;;;25.70;17.75;;;11.10;81.00;;;;;;5032877;28;20087;-66
2021/10/09 08:11:52;;;;;;;28.88;16.83;;;11.10;81.10;;;;;;5026499;28;20033;-68
2021/10/09 08:14:18;;;;;;;26.95;17.27;;;11.20;81.00;;;;;;5029066;28;20033;-67
2021/10/09 08:16:44;;;;;;;25.58;16.40;;;11.30;80.90;;;;;;5027393;28;20400;-67
2021/10/09 08:19:09;;;;;;;26.38;16.40;;;11.30;80.70;;;;;;5026157;28;20033;-67
2021/10/09 08:21:40;;;;;;;25.92;16.83;;;11.40;80.70;;;;;;5029335;28;20453;-67
2021/10/09 08:26:53;;;;;;;25.90;16.58;;;11.50;80.10;;;;;;5026165;28;20489;-67
2021/10/09 08:40:17;;;;;;;25.85;15.95;;;11.70;78.90;;;;;;5029316;28;20094;-66
2021/10/09 08:42:43;;;;;;;23.17;16.10;;;11.80;78.60;;;;;;5027383;28;20512;-66
2021/10/09 08:45:10;;;;;;;23.85;15.98;;;11.80;78.20;;;;;;5031937;28;20136;-67
2021/10/09 08:47:37;;;;;;;24.65;16.15;;;11.80;78.20;;;;;;5030397;28;20056;-67
2021/10/09 08:50:06;;;;;;;24.52;16.73;;;11.80;78.20;;;;;;5042874;28;20033;-67
2021/10/09 08:52:32;;;;;;;27.33;17.20;;;11.80;78.10;;;;;;5031661;28;20037;-67
2021/10/09 08:55:17;;;;;;;25.23;16.90;;;11.80;78.00;;;;;;5033476;28;20029;-67
2021/10/09 08:57:42;;;;;;;24.80;17.40;;;11.90;78.10;;;;;;5029622;28;20501;-66
2021/10/09 09:00:11;;;;;;;22.83;16.27;;;11.80;78.00;;;;;;5027945;28;20288;-67
2021/10/09 09:02:43;;;;;;;27.80;17.90;;;11.80;77.90;;;;;;5025875;28;20037;-67
2021/10/09 09:32:53;;;;;;;28.02;17.05;;;12.20;77.20;;;;;;4970835;28;20042;-67
2021/10/09 09:35:44;;;;;;;23.92;16.05;;;12.30;77.30;;;;;;5025354;28;20053;-67
2021/10/09 09:41:14;;;;;;;26.40;16.33;;;12.40;77.00;;;;;;5048825;28;20048;-68
2021/10/09 09:43:42;;;;;;;27.10;16.73;;;12.60;77.00;;;;;;5052043;28;20155;-67
2021/10/09 09:46:26;;;;;;;27.50;16.48;;;12.60;77.00;;;;;;5037939;28;20029;-67
2021/10/09 09:48:53;;;;;;;24.15;15.13;;;12.80;76.40;;;;;;5032746;28;20041;-67
2021/10/09 09:51:21;;;;;;;20.88;15.25;;;12.80;76.30;;;;;;5040453;28;20083;-67
2021/10/09 09:53:47;;;;;;;23.27;15.23;;;12.90;75.90;;;;;;5027338;28;20107;-67
2021/10/09 09:56:15;;;;;;;21.92;15.85;;;13.00;75.80;;;;;;5032396;28;20414;-68
2021/10/09 09:58:43;;;;;;;23.45;16.17;;;13.10;75.80;;;;;;5033683;28;20037;-67
2021/10/09 10:01:11;;;;;;;23.33;16.83;;;13.20;75.60;;;;;;5033418;28;20042;-67
2021/10/09 10:03:42;;;;;;;25.90;16.27;;;13.20;75.40;;;;;;5032286;28;20051;-67
2021/10/09 10:06:08;;;;;;;25.42;17.00;;;13.30;75.60;;;;;;5036314;28;20429;-68
2021/10/09 10:08:33;;;;;;;24.05;16.88;;;13.40;75.30;;;;;;5030465;28;20056;-67
2021/10/09 10:11:02;;;;;;;27.60;16.10;;;13.50;74.40;;;;;;5033571;28;20128;-68
2021/10/09 10:13:30;;;;;;;23.15;15.75;;;13.50;74.70;;;;;;5036199;28;20492;-68
2021/10/09 10:15:57;;;;;;;21.58;14.82;;;13.60;74.70;;;;;;5034784;28;20045;-68
2021/10/09 10:18:41;;;;;;;22.17;14.65;;;13.60;74.40;;;;;;5034528;28;20112;-68
2021/10/09 10:21:07;;;;;;;25.27;15.98;;;13.70;73.40;;;;;;5034020;28;20033;-68
2021/10/09 10:23:36;;;;;;;23.58;15.88;;;13.80;74.00;;;;;;5030734;28;20060;-68
2021/10/09 10:26:20;;;;;;;24.33;15.80;;;13.80;73.70;;;;;;5032844;28;20420;-67
2021/10/09 10:28:47;;;;;;;23.70;15.73;;;13.90;72.60;;;;;;5026357;28;20037;-68
2021/10/09 10:31:12;;;;;;;22.00;15.60;;;13.90;73.40;;;;;;5034184;28;20055;-67
2021/10/09 10:33:40;;;;;;;19.92;14.32;;;13.90;73.40;;;;;;5030609;28;20030;-68
2021/10/09 10:36:08;;;;;;;23.40;15.35;;;13.90;73.30;;;;;;5034796;28;20036;-67
2021/10/09 10:38:36;;;;;;;21.80;14.48;;;13.90;73.00;;;;;;5033024;28;20036;-67
2021/10/09 10:41:04;;;;;;;27.50;15.00;;;13.90;73.00;;;;;;5035272;28;20044;-67
2021/10/09 10:43:41;;;;;;;19.70;14.57;;;14.00;72.70;;;;;;5033281;28;20041;-67
2021/10/09 10:46:19;;;;;;;23.05;14.35;;;14.00;72.60;;;;;;5036558;28;20634;-67
2021/10/09 10:48:49;;;;;;;21.23;15.27;;;14.10;72.20;;;;;;5032492;28;20722;-68
2021/10/09 10:57:08;;;;;;;25.55;16.30;;;14.20;72.10;;;;;;5055175;28;19912;-67
2021/10/09 10:59:46;;;;;;;23.70;15.65;;;14.20;72.00;;;;;;5050434;28;20103;-67
2021/10/09 11:02:38;;;;;;;22.88;14.82;;;14.20;72.40;;;;;;5058519;28;20041;-67
2021/10/09 11:05:10;;;;;;;20.20;14.40;;;14.30;72.10;;;;;;5056384;28;20040;-68
2021/10/09 11:07:38;;;;;;;20.58;15.40;;;14.20;72.20;;;;;;5055362;28;20037;-68
2021/10/09 11:10:11;;;;;;;21.80;16.15;;;14.20;72.40;;;;;;5052370;28;20119;-66
2021/10/09 11:12:41;;;;;;;25.33;15.68;;;14.30;71.40;;;;;;5056235;28;20089;-68
2021/10/09 11:15:26;;;;;;;21.73;15.40;;;14.30;72.30;;;;;;5058351;28;20032;-66
2021/10/09 11:18:04;;;;;;;21.05;14.70;;;14.30;71.90;;;;;;5056263;28;20508;-67
2021/10/09 11:20:41;;;;;;;21.73;15.23;;;14.40;71.60;;;;;;5051918;28;20037;-67
2021/10/09 11:23:09;;;;;;;20.48;15.25;;;14.40;71.80;;;;;;5057935;28;20083;-68
2021/10/09 11:25:46;;;;;;;24.90;15.95;;;14.40;72.00;;;;;;5058171;28;20036;-68
2021/10/09 11:28:30;;;;;;;21.33;15.57;;;14.50;71.30;;;;;;5058375;28;20040;-66
2021/10/09 11:30:56;;;;;;;21.88;15.77;;;14.40;70.40;;;;;;5052052;28;20032;-68
2021/10/09 11:33:27;;;;;;;21.73;14.68;;;14.50;71.60;;;;;;5055759;28;20036;-68
2021/10/09 11:35:56;;;;;;;21.67;15.45;;;14.50;71.60;;;;;;5057898;28;20162;-68
2021/10/09 11:38:28;;;;;;;20.35;15.35;;;14.50;71.40;;;;;;5051462;28;20551;-68
2021/10/09 11:43:32;;;;;;;23.48;14.90;;;14.60;71.20;;;;;;5056983;28;20036;-67
2021/10/09 11:54:36;;;;;;;19.08;13.90;;;14.80;69.10;;;;;;5050965;28;20047;-68
2021/10/09 11:57:04;;;;;;;23.20;13.10;;;14.80;70.30;;;;;;5034706;28;20087;-68
2021/10/09 11:59:40;;;;;;;20.27;13.55;;;14.80;70.40;;;;;;5036390;28;20166;-68
2021/10/09 12:02:07;;;;;;;19.17;13.82;;;14.90;70.20;;;;;;5035657;28;20044;-68
2021/10/09 12:04:33;;;;;;;19.20;14.30;;;14.90;70.50;;;;;;5035548;28;20044;-68
2021/10/09 12:07:10;;;;;;;20.10;13.70;;;15.00;70.00;;;;;;5033253;28;20061;-68
2021/10/09 12:09:35;;;;;;;20.15;12.88;;;15.00;70.00;;;;;;5035641;28;20033;-68
2021/10/09 12:12:10;;;;;;;19.40;13.23;;;15.10;69.50;;;;;;5031555;28;20033;-67
2021/10/09 12:14:36;;;;;;;;;;;15.10;68.70;;;;;;5035877;28;20547;-68
2021/10/09 12:17:01;;;;;;;16.80;12.55;;;15.20;69.50;;;;;;5034705;28;19913;-67
2021/10/09 12:19:30;;;;;;;15.85;11.88;;;15.20;69.20;;;;;;5034545;28;20037;-67
2021/10/09 12:22:07;;;;;;;19.70;13.07;;;15.20;69.20;;;;;;5036721;28;20033;-67
2021/10/09 12:24:34;;;;;;;19.92;12.65;;;15.20;68.00;;;;;;5034681;28;20090;-68
2021/10/09 12:27:04;;;;;;;15.05;11.50;;;15.30;68.50;;;;;;5037768;28;20420;-68
2021/10/09 12:29:33;;;;;;;16.65;11.57;;;15.30;68.10;;;;;;5036555;28;20036;-68
2021/10/09 12:32:19;;;;;;;19.92;11.88;;;15.40;67.90;;;;;;5034432;28;20037;-68
2021/10/09 12:34:45;;;;;;;15.90;11.27;;;15.40;67.40;;;;;;5030851;28;20480;-67
2021/10/09 12:37:26;;;;;;;14.80;11.02;;;15.50;68.00;;;;;;5035870;28;20033;-68
2021/10/09 12:40:15;;;;;;;14.30;10.70;;;15.50;66.70;;;;;;5036779;28;20072;-68
2021/10/09 12:42:58;;;;;;;15.57;11.40;;;15.60;66.50;;;;;;5033200;28;20405;-68
2021/10/09 12:45:26;;;;;;;13.55;9.73;;;15.60;66.70;;;;;;5034238;28;20049;-68
2021/10/09 12:47:52;;;;;;;11.63;7.70;;;15.60;66.90;;;;;;5037015;28;20374;-67
2021/10/09 12:50:18;;;;;;;15.07;8.18;;;15.70;66.00;;;;;;5036338;28;20052;-68
2021/10/09 12:52:45;;;;;;;11.07;7.72;;;15.70;65.10;;;;;;5033858;28;20570;-69
2021/10/09 12:55:13;;;;;;;13.07;7.40;;;15.70;64.70;;;;;;5038146;28;20036;-69
2021/10/09 12:57:51;;;;;;;12.43;7.35;;;15.70;65.20;;;;;;5034874;28;20041;-69
2021/10/09 13:00:18;;;;;;;9.35;6.45;;;15.80;62.60;;;;;;5035439;28;20029;-68
2021/10/09 13:02:44;;;;;;;7.50;6.03;;;15.80;63.40;;;;;;5033047;28;20114;-68
2021/10/09 13:05:10;;;;;;;8.55;6.55;;;15.80;63.10;;;;;;5035710;28;20064;-67
2021/10/09 13:07:35;;;;;;;11.38;6.78;;;15.80;62.70;;;;;;5036961;28;20068;-68
2021/10/09 13:10:01;;;;;;;8.52;6.60;;;15.90;62.60;;;;;;5035296;28;20036;-69
2021/10/09 13:12:27;;;;;;;10.23;6.88;;;15.90;62.60;;;;;;5032483;28;20037;-69
2021/10/09 13:14:53;;;;;;;9.95;6.60;;;15.90;62.10;;;;;;5036103;28;20528;-68
2021/10/09 13:17:18;;;;;;;10.18;6.40;;;16.00;62.00;;;;;;5034894;28;20132;-69
2021/10/09 13:19:44;;;;;;;8.43;6.38;;;16.00;61.70;;;;;;5036208;28;20360;-68
2021/10/09 13:22:09;;;;;;;7.95;6.20;;;16.00;61.70;;;;;;5034946;28;20531;-68
2021/10/09 13:24:35;;;;;;;10.63;6.57;;;16.00;61.70;;;;;;5033625;28;20099;-68
2021/10/09 13:27:00;;;;;;;13.57;6.88;;;16.10;61.20;;;;;;5036474;28;20033;-68
2021/10/09 13:29:26;;;;;;;9.73;6.75;;;16.10;60.90;;;;;;5036753;28;20106;-68
2021/10/09 13:31:52;;;;;;;11.43;6.30;;;16.10;60.70;;;;;;5035015;28;20037;-66
2021/10/09 13:34:17;;;;;;;9.82;6.45;;;16.10;60.60;;;;;;5034631;28;20065;-68
2021/10/09 13:36:44;;;;;;;8.40;6.30;;;16.20;60.30;;;;;;5035871;28;20620;-68
2021/10/09 13:39:11;;;;;;;7.32;6.25;;;16.20;60.30;;;;;;5035225;28;20049;-68
2021/10/09 13:41:36;;;;;;;7.88;6.15;;;16.20;60.30;;;;;;5036071;28;20120;-68
2021/10/09 13:44:02;;;;;;;11.48;6.25;;;16.20;60.30;;;;;;5034482;28;20129;-68
2021/10/09 13:46:28;;;;;;;8.85;6.35;;;16.20;60.10;;;;;;5031210;28;20506;-68
2021/10/09 13:48:54;;;;;;;10.13;6.32;;;16.20;59.80;;;;;;5034247;28;20030;-68
2021/10/09 13:51:20;;;;;;;11.07;6.20;;;16.20;59.60;;;;;;5017750;28;20124;-67
2021/10/09 13:53:46;;;;;;;6.85;5.72;;;16.30;59.30;;;;;;5021062;28;21454;-68
2021/10/09 13:56:12;;;;;;;9.18;5.85;;;16.30;59.30;;;;;;5024898;28;20116;-68
2021/10/09 13:58:39;;;;;;;10.10;6.10;;;16.30;59.10;;;;;;5028102;28;20041;-67
2021/10/09 14:01:05;;;;;;;10.48;6.03;;;16.30;59.00;;;;;;5039500;28;20037;-68
2021/10/09 14:03:33;;;;;;;8.88;6.18;;;16.30;59.10;;;;;;5022222;28;20052;-68
2021/10/09 14:05:59;;;;;;;6.53;5.35;;;16.30;59.10;;;;;;5027022;28;20040;-68
2021/10/09 14:08:26;;;;;;;9.18;5.97;;;16.30;58.90;;;;;;5024839;28;20033;-68
2021/10/09 14:10:54;;;;;;;8.43;5.45;;;16.30;58.90;;;;;;5023272;28;20547;-67
2021/10/09 14:13:21;;;;;;;8.52;5.05;;;16.30;58.80;;;;;;5029132;28;20033;-67
2021/10/09 14:15:46;;;;;;;6.78;4.95;;;16.30;58.70;;;;;;5030728;28;20060;-67
2021/10/09 14:18:16;;;;;;;9.82;5.50;;;16.30;58.70;;;;;;5028290;28;20120;-67
2021/10/09 14:20:51;;;;;;;7.20;5.32;;;16.30;58.60;;;;;;5029569;28;20025;-68
2021/10/09 14:23:17;;;;;;;9.10;5.60;;;16.30;58.60;;;;;;5027088;28;20121;-67
2021/10/09 14:25:44;;;;;;;8.93;5.50;;;16.30;58.40;;;;;;5029023;28;20125;-67
2021/10/09 14:28:11;;;;;;;7.57;5.47;;;16.30;58.40;;;;;;5031357;28;20067;-68
2021/10/09 14:30:38;;;;;;;7.45;5.60;;;16.30;58.20;;;;;;5023615;28;20036;-68
2021/10/09 14:33:04;;;;;;;8.50;5.82;;;16.30;58.20;;;;;;5026941;28;20032;-67
2021/10/09 14:35:30;;;;;;;6.55;5.32;;;16.30;58.10;;;;;;5029269;28;20033;-67
2021/10/09 14:37:55;;;;;;;10.35;5.25;;;16.30;58.00;;;;;;5029406;28;20785;-68
2021/10/09 14:40:21;;;;;;;8.32;5.47;;;16.30;58.00;;;;;;5022507;28;20098;-67
2021/10/09 14:42:47;;;;;;;6.93;4.68;;;16.30;58.00;;;;;;5042864;28;20029;-67
2021/10/09 14:45:15;;;;;;;6.95;4.97;;;16.30;58.00;;;;;;5049105;28;20057;-68
2021/10/09 15:19:52;;;;;;;6.45;4.88;;;16.20;57.40;;;;;;5039885;28;21563;-68
2021/10/09 15:22:17;;;;;;;7.72;5.05;;;16.20;57.50;;;;;;5035062;28;20050;-67
2021/10/09 15:24:43;;;;;;;9.15;5.10;;;16.10;57.50;;;;;;5040463;28;20194;-67
2021/10/09 15:27:08;;;;;;;11.27;5.47;;;16.10;57.50;;;;;;5041400;28;20080;-68